Pagrindinis puslapis
METAR-TAF:

METAR-TAF

Oro uostai :

Berlynas, Vokietija

platuma: 52-34N, ilguma: 013-19E, Aukštis: 37 m

Dabartinis oras

Ataskaita buvo paskelbta 22 minutes, ne 08:20 UTC
Vėjas 10 kt iš Pietų/Pietvakarių
Temperatūra 3°C
Drėgmė 65%
Slėgis 1011 hPa
Matomumas 10 km arba daugiau
Su prošvaistėmis ne aukštis 2100 ft

METAR: EDDT 060820Z 20010KT 9999 BKN021 03/M03 Q1011 NOSIG

Laikas: 09:42 (08:42 UTC)

Prognozė

Ataskaita buvo paskelbta 3 valandos ir 42 minutes, ne 05:00 UTC
Prognozė galioja nuo 06 metu 06 UTC su 07 metu 06 UTC
Vėjas 10 kt iš Pietvakarių
Matomumas 10 km arba daugiau
Su prošvaistėmis ne aukštis 3000 ft
Tapsmas
nuo 06 metu 09 UTC su 06 metu 12 UTC
Vėjas 15 kt iš Pietvakarių su gūsio iki 25 kt
Tapsmas
nuo 06 metu 15 UTC su 06 metu 18 UTC
Su prošvaistėmis ne aukštis 1400 ft
Laikinai
nuo 07 metu 01 UTC su 07 metu 06 UTC
Matomumas: 4500 m
lietus

TAF: EDDT 060500Z 0606/0706 22010KT 9999 BKN030 BECMG 0609/0612 22015G25KT BECMG 0615/0618 BKN014 TEMPO 0701/0706 4500 RA

Orai ataskaitas ir orų prognozės (METAR, TAF).

turimą stotys yra geltonos ir raudonos taškus žemėlapyje.

Perkelti pele per norėdami pamatyti stoties vardą.

Tada spustelėkite, norėdami matyti oro stebėjimo ir prognozės.

Norėdami pakeisti žemėlapį: spustelėkite ant žalios mygtukų su juodo kryžiaus žemyn,; žalią mygtuką su brūkšneliu, jei norite nutolinti; arba žalių rodyklių gretimoms žemėlapius.


METAR-TAF: